Terminal Aerodrome Forecast
Issued by NWS

Home | Current Version | Previous Version | Graphics & Text | Print | Product List | Glossary On
Versions: 1 2 3 4 5 6 7 8 9 10 11 12 13 14 15 16 17 18 19 20 21
850
FTUS43 KMPX 182335
TAFRWF
TAF
KRWF 182335Z 1900/1924 20007KT P6SM -SHRA BKN090
     FM190100 25008KT P6SM BKN090
     FM190500 32008KT P6SM BKN090
     FM190900 32010KT P6SM OVC012
     FM191600 35012G18KT P6SM OVC022
     FM192100 01011KT P6SM SCT030=

USA.gov is the U.S. government's official web portal to all federal, state and local government web resources and services.